RYR6767 LMML-LGSA
Flight info
| Callsign | RYR6767 |
|---|---|
| Flight time | 1h 9m |
| Altitude | 37000 |
| Route | GODAK DCT NEVIK UL144 PLH |
| Aircraft | B738/M-SDE2E3FGHIRWXY/LB1 |
Departure
| Time | 2026-04-27 13:33 |
|---|---|
| Airport | Malta International Airport (LMML) |
Arrival
| Time | 2026-04-27 14:42 |
|---|---|
| Airport | Chania International Airport (LGSA) |
| Time | Latitude | Longitude | Altitude | Speed | Heading |
|---|---|---|---|---|---|
| 2026-04-27 13:19 | 35.84793 | 14.49301 | 258 ft | 0 kts | 224° |
| 2026-04-27 13:25 | 35.84798 | 14.49306 | 258 ft | 2 kts | 224° |
| 2026-04-27 13:25 | 35.84809 | 14.49320 | 258 ft | 2 kts | 224° |
| 2026-04-27 13:26 | 35.84821 | 14.49334 | 258 ft | 2 kts | 224° |
| 2026-04-27 13:26 | 35.84833 | 14.49348 | 258 ft | 2 kts | 224° |
| 2026-04-27 13:26 | 35.84844 | 14.49362 | 258 ft | 2 kts | 224° |
| 2026-04-27 13:26 | 35.84856 | 14.49376 | 258 ft | 2 kts | 224° |
| 2026-04-27 13:27 | 35.84866 | 14.49388 | 260 ft | 0 kts | 224° |
| 2026-04-27 13:29 | 35.84862 | 14.49338 | 258 ft | 14 kts | 302° |
| 2026-04-27 13:29 | 35.84939 | 14.49214 | 257 ft | 19 kts | 275° |
| 2026-04-27 13:29 | 35.84895 | 14.49111 | 258 ft | 14 kts | 287° |
| 2026-04-27 13:29 | 35.84965 | 14.48991 | 258 ft | 21 kts | 296° |
| 2026-04-27 13:30 | 35.85013 | 14.48793 | 260 ft | 26 kts | 285° |
| 2026-04-27 13:30 | 35.85078 | 14.48595 | 267 ft | 24 kts | 303° |
| 2026-04-27 13:30 | 35.85196 | 14.48431 | 271 ft | 31 kts | 315° |
| 2026-04-27 13:30 | 35.85373 | 14.48210 | 271 ft | 39 kts | 314° |
| 2026-04-27 13:31 | 35.85562 | 14.47978 | 271 ft | 37 kts | 319° |
| 2026-04-27 13:31 | 35.85635 | 14.47892 | 271 ft | 3 kts | 224° |
| 2026-04-27 13:31 | 35.85618 | 14.47906 | 273 ft | 3 kts | 128° |
| 2026-04-27 13:31 | 35.85604 | 14.47926 | 273 ft | 3 kts | 133° |
| 2026-04-27 13:32 | 35.85590 | 14.47945 | 271 ft | 3 kts | 133° |
| 2026-04-27 13:32 | 35.85555 | 14.47990 | 271 ft | 29 kts | 134° |
| 2026-04-27 13:32 | 35.85212 | 14.48407 | 271 ft | 109 kts | 135° |
| 2026-04-27 13:32 | 35.84505 | 14.49273 | 351 ft | 166 kts | 136° |
| 2026-04-27 13:33 | 35.83599 | 14.50382 | 815 ft | 203 kts | 136° |
| 2026-04-27 13:33 | 35.82461 | 14.51601 | 1331 ft | 220 kts | 155° |
| 2026-04-27 13:33 | 35.81024 | 14.51749 | 2558 ft | 203 kts | 202° |
| 2026-04-27 13:33 | 35.80055 | 14.50732 | 3900 ft | 175 kts | 237° |
| 2026-04-27 13:34 | 35.79152 | 14.49763 | 4560 ft | 184 kts | 198° |
| 2026-04-27 13:34 | 35.77770 | 14.49723 | 4706 ft | 217 kts | 161° |
| 2026-04-27 13:34 | 35.76423 | 14.50755 | 4960 ft | 241 kts | 145° |
| 2026-04-27 13:34 | 35.75082 | 14.52173 | 5182 ft | 268 kts | 133° |
| 2026-04-27 13:35 | 35.73980 | 14.54112 | 5664 ft | 283 kts | 116° |
| 2026-04-27 13:35 | 35.73446 | 14.56468 | 6326 ft | 290 kts | 96° |
| 2026-04-27 13:35 | 35.73268 | 14.58962 | 7010 ft | 295 kts | 94° |
| 2026-04-27 13:35 | 35.73128 | 14.61464 | 7728 ft | 298 kts | 93° |
| 2026-04-27 13:36 | 35.72998 | 14.64024 | 8454 ft | 301 kts | 92° |
| 2026-04-27 13:36 | 35.72869 | 14.66617 | 9164 ft | 305 kts | 92° |
| 2026-04-27 13:36 | 35.72739 | 14.69238 | 9849 ft | 309 kts | 92° |
| 2026-04-27 13:36 | 35.72606 | 14.71899 | 10103 ft | 311 kts | 92° |
| 2026-04-27 13:37 | 35.72472 | 14.74549 | 10128 ft | 310 kts | 92° |
| 2026-04-27 13:37 | 35.72338 | 14.77190 | 10144 ft | 313 kts | 92° |
| 2026-04-27 13:37 | 35.72200 | 14.79880 | 10143 ft | 313 kts | 92° |
| 2026-04-27 13:37 | 35.72064 | 14.82526 | 10143 ft | 314 kts | 92° |
| 2026-04-27 13:38 | 35.71927 | 14.85171 | 10550 ft | 307 kts | 92° |
| 2026-04-27 13:38 | 35.71788 | 14.87851 | 10905 ft | 323 kts | 92° |
| 2026-04-27 13:38 | 35.71640 | 14.90712 | 11068 ft | 345 kts | 92° |
| 2026-04-27 13:38 | 35.71483 | 14.93752 | 11232 ft | 366 kts | 92° |
| 2026-04-27 13:39 | 35.71315 | 14.96932 | 11623 ft | 377 kts | 92° |
| 2026-04-27 13:39 | 35.71142 | 15.00186 | 12239 ft | 382 kts | 92° |
| 2026-04-27 13:39 | 35.70966 | 15.03459 | 12893 ft | 386 kts | 92° |
| 2026-04-27 13:39 | 35.70788 | 15.06769 | 13525 ft | 390 kts | 92° |
| 2026-04-27 13:40 | 35.70610 | 15.10076 | 14119 ft | 394 kts | 92° |
| 2026-04-27 13:40 | 35.70426 | 15.13458 | 14698 ft | 398 kts | 92° |
| 2026-04-27 13:40 | 35.70240 | 15.16874 | 15303 ft | 400 kts | 93° |
| 2026-04-27 13:40 | 35.70053 | 15.20310 | 15888 ft | 404 kts | 93° |
| 2026-04-27 13:41 | 35.69863 | 15.23768 | 16464 ft | 407 kts | 93° |
| 2026-04-27 13:41 | 35.69670 | 15.27258 | 17028 ft | 410 kts | 93° |
| 2026-04-27 13:41 | 35.69427 | 15.30778 | 17581 ft | 414 kts | 97° |
| 2026-04-27 13:41 | 35.68886 | 15.34277 | 18136 ft | 418 kts | 102° |
| 2026-04-27 13:42 | 35.68232 | 15.37724 | 18655 ft | 421 kts | 103° |
| 2026-04-27 13:42 | 35.67540 | 15.41246 | 19131 ft | 425 kts | 103° |
| 2026-04-27 13:42 | 35.66855 | 15.44804 | 19595 ft | 428 kts | 103° |
| 2026-04-27 13:42 | 35.66185 | 15.48388 | 20073 ft | 431 kts | 103° |
| 2026-04-27 13:43 | 35.65527 | 15.51992 | 20535 ft | 434 kts | 102° |
| 2026-04-27 13:43 | 35.64866 | 15.55640 | 20979 ft | 437 kts | 102° |
| 2026-04-27 13:43 | 35.64203 | 15.59300 | 21448 ft | 441 kts | 103° |
| 2026-04-27 13:43 | 35.63581 | 15.63012 | 21877 ft | 444 kts | 98° |
| 2026-04-27 13:44 | 35.63230 | 15.66755 | 22305 ft | 447 kts | 94° |
| 2026-04-27 13:44 | 35.63033 | 15.70589 | 22739 ft | 450 kts | 92° |
| 2026-04-27 13:44 | 35.62894 | 15.74440 | 23141 ft | 453 kts | 92° |
| 2026-04-27 13:44 | 35.62759 | 15.78318 | 23561 ft | 456 kts | 92° |
| 2026-04-27 13:45 | 35.62606 | 15.82233 | 23931 ft | 459 kts | 92° |
| 2026-04-27 13:45 | 35.62472 | 15.85258 | 24192 ft | 461 kts | 93° |
| 2026-04-27 13:45 | 35.62279 | 15.89209 | 24540 ft | 464 kts | 93° |
| 2026-04-27 13:45 | 35.62073 | 15.93136 | 24881 ft | 466 kts | 93° |
| 2026-04-27 13:46 | 35.61851 | 15.97176 | 25217 ft | 469 kts | 94° |
| 2026-04-27 13:46 | 35.61627 | 16.01148 | 25537 ft | 472 kts | 94° |
| 2026-04-27 13:46 | 35.61397 | 16.05186 | 25859 ft | 474 kts | 94° |
| 2026-04-27 13:46 | 35.61165 | 16.09244 | 26180 ft | 477 kts | 94° |
| 2026-04-27 13:47 | 35.60930 | 16.13321 | 26489 ft | 479 kts | 94° |
| 2026-04-27 13:47 | 35.60696 | 16.17379 | 26790 ft | 482 kts | 94° |
| 2026-04-27 13:47 | 35.60458 | 16.21504 | 27089 ft | 484 kts | 94° |
| 2026-04-27 13:47 | 35.60217 | 16.25648 | 27386 ft | 486 kts | 94° |
| 2026-04-27 13:48 | 35.59973 | 16.29810 | 27681 ft | 489 kts | 94° |
| 2026-04-27 13:48 | 35.59728 | 16.33987 | 27962 ft | 491 kts | 94° |
| 2026-04-27 13:48 | 35.59480 | 16.38184 | 28251 ft | 493 kts | 94° |
| 2026-04-27 13:48 | 35.59229 | 16.42405 | 28525 ft | 496 kts | 94° |
| 2026-04-27 13:49 | 35.58979 | 16.46590 | 28793 ft | 498 kts | 94° |
| 2026-04-27 13:49 | 35.58723 | 16.50842 | 29055 ft | 500 kts | 94° |
| 2026-04-27 13:49 | 35.58464 | 16.55121 | 29312 ft | 502 kts | 94° |
| 2026-04-27 13:49 | 35.58202 | 16.59408 | 29588 ft | 504 kts | 94° |
| 2026-04-27 13:50 | 35.57939 | 16.63703 | 29904 ft | 504 kts | 94° |
| 2026-04-27 13:50 | 35.57673 | 16.68020 | 30270 ft | 503 kts | 94° |
| 2026-04-27 13:50 | 35.57411 | 16.72250 | 30601 ft | 502 kts | 94° |
| 2026-04-27 13:50 | 35.57144 | 16.76539 | 30941 ft | 500 kts | 94° |
| 2026-04-27 13:51 | 35.56876 | 16.80809 | 31259 ft | 500 kts | 94° |
| 2026-04-27 13:51 | 35.56607 | 16.85064 | 31549 ft | 499 kts | 94° |
| 2026-04-27 13:51 | 35.56338 | 16.89313 | 31849 ft | 498 kts | 94° |
| 2026-04-27 13:51 | 35.56071 | 16.93494 | 32163 ft | 497 kts | 94° |
| 2026-04-27 13:52 | 35.55800 | 16.97729 | 32494 ft | 495 kts | 94° |
| 2026-04-27 13:52 | 35.55528 | 17.01945 | 32807 ft | 494 kts | 94° |
| 2026-04-27 13:52 | 35.55256 | 17.06141 | 33098 ft | 493 kts | 94° |
| 2026-04-27 13:52 | 35.54983 | 17.10342 | 33370 ft | 492 kts | 94° |
| 2026-04-27 13:53 | 35.54436 | 17.18658 | 33950 ft | 489 kts | 95° |
| 2026-04-27 13:53 | 35.54160 | 17.22828 | 34223 ft | 488 kts | 95° |
| 2026-04-27 13:53 | 35.53883 | 17.26996 | 34470 ft | 487 kts | 95° |
| 2026-04-27 13:54 | 35.53609 | 17.31088 | 34671 ft | 487 kts | 95° |
| 2026-04-27 13:54 | 35.53330 | 17.35243 | 34819 ft | 488 kts | 95° |
| 2026-04-27 13:54 | 35.53050 | 17.39387 | 34989 ft | 488 kts | 95° |
| 2026-04-27 13:54 | 35.52766 | 17.43556 | 35140 ft | 488 kts | 95° |
| 2026-04-27 13:55 | 35.52481 | 17.47730 | 35133 ft | 491 kts | 95° |
| 2026-04-27 13:55 | 35.51911 | 17.56016 | 35146 ft | 487 kts | 95° |
| 2026-04-27 13:56 | 35.51336 | 17.64287 | 35143 ft | 484 kts | 95° |
| 2026-04-27 13:56 | 35.50759 | 17.72507 | 35143 ft | 482 kts | 95° |
| 2026-04-27 13:57 | 35.50179 | 17.80688 | 35145 ft | 480 kts | 95° |
| 2026-04-27 13:57 | 35.49594 | 17.88861 | 35148 ft | 480 kts | 95° |
| 2026-04-27 13:58 | 35.49003 | 17.97046 | 35149 ft | 481 kts | 95° |
| 2026-04-27 13:58 | 35.48409 | 18.05187 | 35146 ft | 483 kts | 95° |
| 2026-04-27 13:59 | 35.47804 | 18.13408 | 35145 ft | 485 kts | 95° |
| 2026-04-27 13:59 | 35.47189 | 18.21675 | 35150 ft | 486 kts | 95° |
| 2026-04-27 14:00 | 35.46572 | 18.29909 | 35148 ft | 488 kts | 95° |
| 2026-04-27 14:00 | 35.45944 | 18.38205 | 35147 ft | 489 kts | 95° |
| 2026-04-27 14:01 | 35.45310 | 18.46508 | 35140 ft | 489 kts | 95° |
| 2026-04-27 14:01 | 35.44669 | 18.54822 | 35143 ft | 488 kts | 95° |
| 2026-04-27 14:02 | 35.44023 | 18.63114 | 35153 ft | 487 kts | 95° |
| 2026-04-27 14:02 | 35.43377 | 18.71350 | 35143 ft | 486 kts | 95° |
| 2026-04-27 14:03 | 35.42724 | 18.79599 | 35142 ft | 485 kts | 95° |
| 2026-04-27 14:03 | 35.42067 | 18.87828 | 35142 ft | 484 kts | 96° |
| 2026-04-27 14:04 | 35.41410 | 18.95984 | 35144 ft | 483 kts | 96° |
| 2026-04-27 14:04 | 35.40743 | 19.04191 | 35144 ft | 482 kts | 96° |
| 2026-04-27 14:05 | 35.40186 | 19.10985 | 35144 ft | 481 kts | 96° |
| 2026-04-27 14:05 | 35.39402 | 19.20490 | 35142 ft | 481 kts | 96° |
| 2026-04-27 14:06 | 35.38721 | 19.28658 | 35142 ft | 481 kts | 96° |
| 2026-04-27 14:06 | 35.38149 | 19.35470 | 35144 ft | 482 kts | 96° |
| 2026-04-27 14:07 | 35.37460 | 19.43620 | 35144 ft | 483 kts | 96° |
| 2026-04-27 14:07 | 35.36761 | 19.51824 | 35144 ft | 484 kts | 96° |
| 2026-04-27 14:08 | 35.36060 | 19.59983 | 35143 ft | 484 kts | 96° |
| 2026-04-27 14:08 | 35.35347 | 19.68210 | 35139 ft | 485 kts | 96° |
| 2026-04-27 14:09 | 35.34628 | 19.76440 | 35137 ft | 486 kts | 96° |
| 2026-04-27 14:09 | 35.33904 | 19.84671 | 35137 ft | 486 kts | 96° |
| 2026-04-27 14:10 | 35.33172 | 19.92913 | 35135 ft | 486 kts | 96° |
| 2026-04-27 14:10 | 35.32436 | 20.01148 | 35136 ft | 486 kts | 96° |
| 2026-04-27 14:11 | 35.31699 | 20.09332 | 35135 ft | 486 kts | 96° |
| 2026-04-27 14:11 | 35.30952 | 20.17562 | 35131 ft | 485 kts | 96° |
| 2026-04-27 14:12 | 35.30200 | 20.25776 | 35132 ft | 485 kts | 96° |
| 2026-04-27 14:12 | 35.29448 | 20.33937 | 35130 ft | 485 kts | 96° |
| 2026-04-27 14:13 | 35.28687 | 20.42129 | 35131 ft | 484 kts | 96° |
| 2026-04-27 14:13 | 35.27920 | 20.50324 | 35130 ft | 485 kts | 96° |
| 2026-04-27 14:14 | 35.27146 | 20.58540 | 35130 ft | 485 kts | 96° |
| 2026-04-27 14:14 | 35.26371 | 20.66699 | 35132 ft | 486 kts | 96° |
| 2026-04-27 14:15 | 35.25585 | 20.74924 | 35129 ft | 486 kts | 96° |
| 2026-04-27 14:15 | 35.24792 | 20.83155 | 35125 ft | 486 kts | 97° |
| 2026-04-27 14:16 | 35.23999 | 20.91327 | 35049 ft | 487 kts | 97° |
| 2026-04-27 14:16 | 35.23594 | 20.95475 | 34641 ft | 490 kts | 97° |
| 2026-04-27 14:16 | 35.23191 | 20.99598 | 34300 ft | 487 kts | 97° |
| 2026-04-27 14:16 | 35.22789 | 21.03688 | 33911 ft | 482 kts | 97° |
| 2026-04-27 14:17 | 35.22388 | 21.07753 | 33510 ft | 481 kts | 97° |
| 2026-04-27 14:17 | 35.21985 | 21.11823 | 33119 ft | 480 kts | 97° |
| 2026-04-27 14:17 | 35.21583 | 21.15878 | 32730 ft | 480 kts | 97° |
| 2026-04-27 14:17 | 35.21181 | 21.19906 | 32354 ft | 485 kts | 97° |
| 2026-04-27 14:18 | 35.20769 | 21.24030 | 31991 ft | 491 kts | 97° |
| 2026-04-27 14:18 | 35.20352 | 21.28189 | 31617 ft | 492 kts | 97° |
| 2026-04-27 14:18 | 35.19934 | 21.32345 | 31243 ft | 492 kts | 97° |
| 2026-04-27 14:18 | 35.19514 | 21.36502 | 30878 ft | 492 kts | 97° |
| 2026-04-27 14:19 | 35.19091 | 21.40670 | 30519 ft | 493 kts | 97° |
| 2026-04-27 14:19 | 35.18669 | 21.44823 | 30156 ft | 493 kts | 97° |
| 2026-04-27 14:19 | 35.18248 | 21.48949 | 29743 ft | 493 kts | 97° |
| 2026-04-27 14:19 | 35.17821 | 21.53115 | 29329 ft | 493 kts | 97° |
| 2026-04-27 14:20 | 35.17393 | 21.57276 | 28923 ft | 493 kts | 97° |
| 2026-04-27 14:20 | 35.16964 | 21.61441 | 28525 ft | 494 kts | 97° |
| 2026-04-27 14:20 | 35.16531 | 21.65623 | 28134 ft | 498 kts | 97° |
| 2026-04-27 14:20 | 35.16096 | 21.69820 | 27747 ft | 499 kts | 97° |
| 2026-04-27 14:21 | 35.15657 | 21.74029 | 27357 ft | 498 kts | 97° |
| 2026-04-27 14:21 | 35.15223 | 21.78180 | 26981 ft | 497 kts | 97° |
| 2026-04-27 14:21 | 35.14783 | 21.82377 | 26606 ft | 497 kts | 97° |
| 2026-04-27 14:21 | 35.14343 | 21.86569 | 26229 ft | 496 kts | 96° |
| 2026-04-27 14:22 | 35.13902 | 21.90746 | 25869 ft | 496 kts | 97° |
| 2026-04-27 14:22 | 35.13478 | 21.94927 | 25503 ft | 495 kts | 94° |
| 2026-04-27 14:22 | 35.13389 | 21.99124 | 25165 ft | 491 kts | 85° |
| 2026-04-27 14:22 | 35.13646 | 22.03283 | 25144 ft | 491 kts | 83° |
| 2026-04-27 14:23 | 35.13937 | 22.07442 | 25113 ft | 489 kts | 83° |
| 2026-04-27 14:23 | 35.14227 | 22.11574 | 25109 ft | 488 kts | 83° |
| 2026-04-27 14:23 | 35.14507 | 22.15710 | 25108 ft | 489 kts | 84° |
| 2026-04-27 14:23 | 35.14773 | 22.19814 | 25014 ft | 491 kts | 84° |
| 2026-04-27 14:24 | 35.15031 | 22.23976 | 24618 ft | 488 kts | 84° |
| 2026-04-27 14:24 | 35.15277 | 22.28079 | 24272 ft | 481 kts | 84° |
| 2026-04-27 14:24 | 35.15516 | 22.32150 | 23923 ft | 476 kts | 84° |
| 2026-04-27 14:24 | 35.15752 | 22.36212 | 23565 ft | 475 kts | 84° |
| 2026-04-27 14:25 | 35.15907 | 22.38869 | 23305 ft | 474 kts | 84° |
| 2026-04-27 14:25 | 35.16008 | 22.40604 | 23122 ft | 473 kts | 84° |
| 2026-04-27 14:25 | 35.16239 | 22.44607 | 22725 ft | 470 kts | 84° |
| 2026-04-27 14:25 | 35.16469 | 22.48587 | 22333 ft | 468 kts | 84° |
| 2026-04-27 14:26 | 35.16696 | 22.52542 | 21939 ft | 463 kts | 84° |
| 2026-04-27 14:26 | 35.16918 | 22.56441 | 21545 ft | 456 kts | 85° |
| 2026-04-27 14:26 | 35.17137 | 22.60294 | 21162 ft | 451 kts | 85° |
| 2026-04-27 14:26 | 35.17350 | 22.64069 | 20798 ft | 448 kts | 85° |
| 2026-04-27 14:27 | 35.17564 | 22.67860 | 20421 ft | 445 kts | 85° |
| 2026-04-27 14:27 | 35.17775 | 22.71637 | 20129 ft | 444 kts | 85° |
| 2026-04-27 14:27 | 35.17985 | 22.75404 | 19917 ft | 444 kts | 85° |
| 2026-04-27 14:27 | 35.18192 | 22.79154 | 19683 ft | 439 kts | 85° |
| 2026-04-27 14:28 | 35.18396 | 22.82872 | 19453 ft | 436 kts | 85° |
| 2026-04-27 14:28 | 35.18595 | 22.86518 | 19232 ft | 435 kts | 85° |
| 2026-04-27 14:28 | 35.18796 | 22.90214 | 19006 ft | 434 kts | 85° |
| 2026-04-27 14:28 | 35.18994 | 22.93883 | 18779 ft | 431 kts | 85° |
| 2026-04-27 14:29 | 35.19191 | 22.97540 | 18525 ft | 429 kts | 85° |
| 2026-04-27 14:29 | 35.19383 | 23.01141 | 18198 ft | 428 kts | 85° |
| 2026-04-27 14:29 | 35.19576 | 23.04769 | 17851 ft | 425 kts | 85° |
| 2026-04-27 14:29 | 35.19766 | 23.08366 | 17506 ft | 421 kts | 86° |
| 2026-04-27 14:30 | 35.19952 | 23.11923 | 17170 ft | 418 kts | 86° |
| 2026-04-27 14:30 | 35.20137 | 23.15460 | 16831 ft | 416 kts | 86° |
| 2026-04-27 14:30 | 35.20321 | 23.18998 | 16510 ft | 417 kts | 86° |
| 2026-04-27 14:30 | 35.20504 | 23.22551 | 16184 ft | 417 kts | 86° |
| 2026-04-27 14:31 | 35.20686 | 23.26086 | 16099 ft | 416 kts | 86° |
| 2026-04-27 14:31 | 35.20864 | 23.29582 | 16079 ft | 416 kts | 86° |
| 2026-04-27 14:31 | 35.21043 | 23.33103 | 16019 ft | 416 kts | 86° |
| 2026-04-27 14:31 | 35.21224 | 23.36670 | 15573 ft | 421 kts | 86° |
| 2026-04-27 14:32 | 35.21402 | 23.40222 | 15153 ft | 415 kts | 86° |
| 2026-04-27 14:32 | 35.21576 | 23.43723 | 14734 ft | 411 kts | 86° |
| 2026-04-27 14:32 | 35.21748 | 23.47193 | 14256 ft | 403 kts | 86° |
| 2026-04-27 14:32 | 35.21912 | 23.50536 | 13772 ft | 392 kts | 86° |
| 2026-04-27 14:33 | 35.22073 | 23.53813 | 13237 ft | 380 kts | 86° |
| 2026-04-27 14:33 | 35.22228 | 23.56987 | 12715 ft | 369 kts | 86° |
| 2026-04-27 14:33 | 35.22379 | 23.60087 | 12202 ft | 360 kts | 85° |
| 2026-04-27 14:33 | 35.22526 | 23.63129 | 11702 ft | 352 kts | 85° |
| 2026-04-27 14:34 | 35.22675 | 23.66086 | 11208 ft | 345 kts | 83° |
| 2026-04-27 14:34 | 35.23277 | 23.68828 | 10716 ft | 336 kts | 62° |
| 2026-04-27 14:34 | 35.24524 | 23.71193 | 10268 ft | 327 kts | 52° |
| 2026-04-27 14:34 | 35.25894 | 23.73433 | 9770 ft | 322 kts | 51° |
| 2026-04-27 14:35 | 35.27222 | 23.75577 | 9242 ft | 317 kts | 51° |
| 2026-04-27 14:35 | 35.28538 | 23.77719 | 8739 ft | 313 kts | 52° |
| 2026-04-27 14:35 | 35.29826 | 23.79840 | 8230 ft | 309 kts | 52° |
| 2026-04-27 14:35 | 35.31093 | 23.81945 | 7736 ft | 305 kts | 52° |
| 2026-04-27 14:36 | 35.32344 | 23.84029 | 7258 ft | 302 kts | 53° |
| 2026-04-27 14:36 | 35.33583 | 23.86096 | 6789 ft | 300 kts | 53° |
| 2026-04-27 14:36 | 35.34811 | 23.88147 | 6294 ft | 298 kts | 53° |
| 2026-04-27 14:36 | 35.36188 | 23.90006 | 5766 ft | 295 kts | 36° |
| 2026-04-27 14:37 | 35.37889 | 23.91373 | 5290 ft | 291 kts | 31° |
| 2026-04-27 14:37 | 35.39628 | 23.92638 | 4808 ft | 290 kts | 30° |
| 2026-04-27 14:37 | 35.41364 | 23.93881 | 4315 ft | 289 kts | 30° |
| 2026-04-27 14:37 | 35.43103 | 23.95110 | 3796 ft | 288 kts | 30° |
| 2026-04-27 14:38 | 35.44839 | 23.96327 | 3308 ft | 287 kts | 30° |
| 2026-04-27 14:38 | 35.46539 | 23.97522 | 3119 ft | 275 kts | 30° |
| 2026-04-27 14:38 | 35.48146 | 23.98652 | 3058 ft | 258 kts | 30° |
| 2026-04-27 14:38 | 35.49653 | 23.99709 | 3055 ft | 241 kts | 30° |
| 2026-04-27 14:39 | 35.51049 | 24.00688 | 3089 ft | 221 kts | 30° |
| 2026-04-27 14:39 | 35.52335 | 24.01589 | 3031 ft | 204 kts | 30° |
| 2026-04-27 14:39 | 35.53522 | 24.02429 | 2846 ft | 197 kts | 31° |
| 2026-04-27 14:39 | 35.54705 | 24.03319 | 2422 ft | 199 kts | 31° |
| 2026-04-27 14:40 | 35.55805 | 24.04308 | 2049 ft | 195 kts | 53° |
| 2026-04-27 14:40 | 35.56122 | 24.05827 | 1861 ft | 180 kts | 98° |
| 2026-04-27 14:40 | 35.55699 | 24.07241 | 1602 ft | 170 kts | 113° |
| 2026-04-27 14:40 | 35.55279 | 24.08531 | 1337 ft | 157 kts | 111° |
| 2026-04-27 14:41 | 35.54900 | 24.09764 | 1137 ft | 155 kts | 111° |
| 2026-04-27 14:41 | 35.54487 | 24.10935 | 963 ft | 145 kts | 112° |
| 2026-04-27 14:41 | 35.54127 | 24.12063 | 744 ft | 137 kts | 111° |
| 2026-04-27 14:41 | 35.53766 | 24.13150 | 583 ft | 140 kts | 113° |
| 2026-04-27 14:42 | 35.53413 | 24.14241 | 504 ft | 128 kts | 112° |
| 2026-04-27 14:42 | 35.53178 | 24.14963 | 491 ft | 34 kts | 112° |
| 2026-04-27 14:42 | 35.53166 | 24.15117 | 485 ft | 19 kts | 37° |
| 2026-04-27 14:42 | 35.53280 | 24.15177 | 495 ft | 6 kts | 2° |
| 2026-04-27 14:43 | 35.53299 | 24.15161 | 493 ft | 11 kts | 302° |
| 2026-04-27 14:43 | 35.53361 | 24.14973 | 490 ft | 31 kts | 292° |
| 2026-04-27 14:43 | 35.53433 | 24.14753 | 494 ft | 26 kts | 291° |
| 2026-04-27 14:43 | 35.53498 | 24.14551 | 491 ft | 25 kts | 291° |
| 2026-04-27 14:44 | 35.53559 | 24.14364 | 494 ft | 22 kts | 294° |
| 2026-04-27 14:44 | 35.53616 | 24.14198 | 492 ft | 20 kts | 291° |
| 2026-04-27 14:44 | 35.53670 | 24.14029 | 489 ft | 21 kts | 291° |
| 2026-04-27 14:44 | 35.53758 | 24.14000 | 497 ft | 14 kts | 23° |
| 2026-04-27 14:45 | 35.53818 | 24.13960 | 488 ft | 10 kts | 296° |
| 2026-04-27 14:45 | 35.53862 | 24.13930 | 493 ft | 7 kts | 30° |
| 2026-04-27 14:45 | 35.53900 | 24.13950 | 497 ft | 5 kts | 20° |
| 2026-04-27 14:45 | 35.53903 | 24.13951 | 497 ft | 1 kts | 20° |
| 2026-04-27 14:46 | 35.53909 | 24.13954 | 497 ft | 1 kts | 20° |
| 2026-04-27 14:46 | 35.53911 | 24.13955 | 497 ft | 0 kts | 20° |